sensor_id;sensor_type;location;lat;lon;timestamp;temperature;humidity
5508;DHT22;2776;51.046;6.772;2022-12-24T00:01:00;10.70;99.90
5508;DHT22;2776;51.046;6.772;2022-12-24T00:03:27;10.70;99.90
5508;DHT22;2776;51.046;6.772;2022-12-24T00:05:53;10.60;99.90
5508;DHT22;2776;51.046;6.772;2022-12-24T00:08:20;10.60;99.90
5508;DHT22;2776;51.046;6.772;2022-12-24T00:10:49;10.50;99.90
5508;DHT22;2776;51.046;6.772;2022-12-24T00:13:18;10.50;99.90
5508;DHT22;2776;51.046;6.772;2022-12-24T00:15:45;10.50;99.90
5508;DHT22;2776;51.046;6.772;2022-12-24T00:18:12;10.40;99.90
5508;DHT22;2776;51.046;6.772;2022-12-24T00:20:38;10.40;99.90
5508;DHT22;2776;51.046;6.772;2022-12-24T00:23:05;10.40;99.90
5508;DHT22;2776;51.046;6.772;2022-12-24T00:25:32;10.40;99.90
5508;DHT22;2776;51.046;6.772;2022-12-24T00:27:59;10.40;99.90
5508;DHT22;2776;51.046;6.772;2022-12-24T00:30:27;10.40;99.90
5508;DHT22;2776;51.046;6.772;2022-12-24T00:32:54;10.40;99.90
5508;DHT22;2776;51.046;6.772;2022-12-24T00:35:21;10.40;99.90
5508;DHT22;2776;51.046;6.772;2022-12-24T00:37:48;10.40;99.90
5508;DHT22;2776;51.046;6.772;2022-12-24T00:40:15;10.50;99.90
5508;DHT22;2776;51.046;6.772;2022-12-24T00:42:42;10.50;99.90
5508;DHT22;2776;51.046;6.772;2022-12-24T00:45:09;10.60;99.90
5508;DHT22;2776;51.046;6.772;2022-12-24T00:47:38;10.60;99.90
5508;DHT22;2776;51.046;6.772;2022-12-24T00:50:05;10.60;99.90
5508;DHT22;2776;51.046;6.772;2022-12-24T00:52:32;10.60;99.90
5508;DHT22;2776;51.046;6.772;2022-12-24T00:54:59;10.70;99.90
5508;DHT22;2776;51.046;6.772;2022-12-24T00:57:26;10.70;99.90
5508;DHT22;2776;51.046;6.772;2022-12-24T00:59:52;10.70;99.90
5508;DHT22;2776;51.046;6.772;2022-12-24T01:02:19;10.70;99.90
5508;DHT22;2776;51.046;6.772;2022-12-24T01:04:47;10.80;99.90
5508;DHT22;2776;51.046;6.772;2022-12-24T01:07:31;10.80;99.90
5508;DHT22;2776;51.046;6.772;2022-12-24T01:09:58;10.70;99.90
5508;DHT22;2776;51.046;6.772;2022-12-24T01:12:25;10.80;99.90
5508;DHT22;2776;51.046;6.772;2022-12-24T01:14:51;10.70;99.90
5508;DHT22;2776;51.046;6.772;2022-12-24T01:17:18;10.80;99.90
5508;DHT22;2776;51.046;6.772;2022-12-24T01:19:46;10.80;99.90
5508;DHT22;2776;51.046;6.772;2022-12-24T01:22:13;10.80;99.90
5508;DHT22;2776;51.046;6.772;2022-12-24T01:24:40;10.70;99.90
5508;DHT22;2776;51.046;6.772;2022-12-24T01:27:07;10.60;99.90
5508;DHT22;2776;51.046;6.772;2022-12-24T01:29:34;10.60;99.90
5508;DHT22;2776;51.046;6.772;2022-12-24T01:32:01;10.60;99.90
5508;DHT22;2776;51.046;6.772;2022-12-24T01:34:28;10.50;99.90
5508;DHT22;2776;51.046;6.772;2022-12-24T01:36:56;10.50;99.90
5508;DHT22;2776;51.046;6.772;2022-12-24T01:39:22;10.50;99.90
5508;DHT22;2776;51.046;6.772;2022-12-24T01:41:49;10.50;99.90
5508;DHT22;2776;51.046;6.772;2022-12-24T01:44:35;10.50;99.90
5508;DHT22;2776;51.046;6.772;2022-12-24T01:47:07;10.50;99.90
5508;DHT22;2776;51.046;6.772;2022-12-24T01:49:37;10.40;99.90
5508;DHT22;2776;51.046;6.772;2022-12-24T01:52:08;10.40;99.90
5508;DHT22;2776;51.046;6.772;2022-12-24T01:54:39;10.40;99.90
5508;DHT22;2776;51.046;6.772;2022-12-24T01:57:10;10.40;99.90
5508;DHT22;2776;51.046;6.772;2022-12-24T01:59:40;10.30;99.90
5508;DHT22;2776;51.046;6.772;2022-12-24T02:02:09;10.30;99.90
5508;DHT22;2776;51.046;6.772;2022-12-24T02:04:39;10.30;99.90
5508;DHT22;2776;51.046;6.772;2022-12-24T02:07:08;10.20;99.90
5508;DHT22;2776;51.046;6.772;2022-12-24T02:09:35;10.20;99.90
5508;DHT22;2776;51.046;6.772;2022-12-24T02:12:04;10.20;99.90
5508;DHT22;2776;51.046;6.772;2022-12-24T02:14:31;10.10;99.90
5508;DHT22;2776;51.046;6.772;2022-12-24T02:17:05;10.10;99.90
5508;DHT22;2776;51.046;6.772;2022-12-24T02:20:02;10.10;99.90
5508;DHT22;2776;51.046;6.772;2022-12-24T02:22:50;10.10;99.90
5508;DHT22;2776;51.046;6.772;2022-12-24T02:25:34;10.00;99.90
5508;DHT22;2776;51.046;6.772;2022-12-24T02:28:12;10.00;99.90
5508;DHT22;2776;51.046;6.772;2022-12-24T02:30:44;10.00;99.90
5508;DHT22;2776;51.046;6.772;2022-12-24T02:33:19;10.00;99.90
5508;DHT22;2776;51.046;6.772;2022-12-24T02:35:55;10.00;99.90
5508;DHT22;2776;51.046;6.772;2022-12-24T02:38:26;10.00;99.90
5508;DHT22;2776;51.046;6.772;2022-12-24T02:40:56;10.10;99.90
5508;DHT22;2776;51.046;6.772;2022-12-24T02:43:33;10.10;99.90
5508;DHT22;2776;51.046;6.772;2022-12-24T02:46:06;10.10;99.90
5508;DHT22;2776;51.046;6.772;2022-12-24T02:48:36;10.20;99.90
5508;DHT22;2776;51.046;6.772;2022-12-24T02:51:07;10.20;99.90
5508;DHT22;2776;51.046;6.772;2022-12-24T02:53:34;10.30;99.90
5508;DHT22;2776;51.046;6.772;2022-12-24T02:56:24;10.40;99.90
5508;DHT22;2776;51.046;6.772;2022-12-24T02:59:05;10.40;99.90
5508;DHT22;2776;51.046;6.772;2022-12-24T03:01:44;10.40;99.90
5508;DHT22;2776;51.046;6.772;2022-12-24T03:04:21;10.50;99.90
5508;DHT22;2776;51.046;6.772;2022-12-24T03:07:06;10.50;99.90
5508;DHT22;2776;51.046;6.772;2022-12-24T03:12:33;10.60;99.90
5508;DHT22;2776;51.046;6.772;2022-12-24T03:15:03;10.60;99.90
5508;DHT22;2776;51.046;6.772;2022-12-24T03:17:34;10.60;99.90
5508;DHT22;2776;51.046;6.772;2022-12-24T03:20:03;10.70;99.90
5508;DHT22;2776;51.046;6.772;2022-12-24T03:22:32;10.70;99.90
5508;DHT22;2776;51.046;6.772;2022-12-24T03:25:00;10.70;99.90
5508;DHT22;2776;51.046;6.772;2022-12-24T03:27:27;10.70;99.90
5508;DHT22;2776;51.046;6.772;2022-12-24T03:29:55;10.70;99.90
5508;DHT22;2776;51.046;6.772;2022-12-24T03:32:23;10.60;99.90
5508;DHT22;2776;51.046;6.772;2022-12-24T03:34:52;10.60;99.90
5508;DHT22;2776;51.046;6.772;2022-12-24T03:37:19;10.60;99.90
5508;DHT22;2776;51.046;6.772;2022-12-24T03:39:45;10.50;99.90
5508;DHT22;2776;51.046;6.772;2022-12-24T03:42:12;10.50;99.90
5508;DHT22;2776;51.046;6.772;2022-12-24T03:44:39;10.40;99.90
5508;DHT22;2776;51.046;6.772;2022-12-24T03:47:05;10.40;99.90
5508;DHT22;2776;51.046;6.772;2022-12-24T03:49:32;10.40;99.90
5508;DHT22;2776;51.046;6.772;2022-12-24T03:52:00;10.40;99.90
5508;DHT22;2776;51.046;6.772;2022-12-24T03:54:27;10.40;99.90
5508;DHT22;2776;51.046;6.772;2022-12-24T03:56:54;10.30;99.90
5508;DHT22;2776;51.046;6.772;2022-12-24T03:59:20;10.30;99.90
5508;DHT22;2776;51.046;6.772;2022-12-24T04:01:47;10.20;99.90
5508;DHT22;2776;51.046;6.772;2022-12-24T04:04:14;10.20;99.90
5508;DHT22;2776;51.046;6.772;2022-12-24T04:06:41;10.20;99.90
5508;DHT22;2776;51.046;6.772;2022-12-24T04:09:09;10.20;99.90
5508;DHT22;2776;51.046;6.772;2022-12-24T04:11:36;10.10;99.90
5508;DHT22;2776;51.046;6.772;2022-12-24T04:14:03;10.20;99.90
5508;DHT22;2776;51.046;6.772;2022-12-24T04:16:29;10.20;99.90
5508;DHT22;2776;51.046;6.772;2022-12-24T04:18:56;10.20;99.90
5508;DHT22;2776;51.046;6.772;2022-12-24T04:21:23;10.20;99.90
5508;DHT22;2776;51.046;6.772;2022-12-24T04:23:49;10.20;99.90
5508;DHT22;2776;51.046;6.772;2022-12-24T04:26:17;10.30;99.90
5508;DHT22;2776;51.046;6.772;2022-12-24T04:28:44;10.30;99.90
5508;DHT22;2776;51.046;6.772;2022-12-24T04:31:12;10.30;99.90
5508;DHT22;2776;51.046;6.772;2022-12-24T04:33:40;10.30;99.90
5508;DHT22;2776;51.046;6.772;2022-12-24T04:36:07;10.30;99.90
5508;DHT22;2776;51.046;6.772;2022-12-24T04:38:35;10.30;99.90
5508;DHT22;2776;51.046;6.772;2022-12-24T04:41:04;10.30;99.90
5508;DHT22;2776;51.046;6.772;2022-12-24T04:43:33;10.30;99.90
5508;DHT22;2776;51.046;6.772;2022-12-24T04:46:04;10.30;99.90
5508;DHT22;2776;51.046;6.772;2022-12-24T04:48:30;10.30;99.90
5508;DHT22;2776;51.046;6.772;2022-12-24T04:51:00;10.30;99.90
5508;DHT22;2776;51.046;6.772;2022-12-24T04:53:26;10.30;99.90
5508;DHT22;2776;51.046;6.772;2022-12-24T04:55:53;10.20;99.90
5508;DHT22;2776;51.046;6.772;2022-12-24T04:58:20;10.20;99.90
5508;DHT22;2776;51.046;6.772;2022-12-24T05:00:48;10.20;99.90
5508;DHT22;2776;51.046;6.772;2022-12-24T05:03:15;10.10;99.90
5508;DHT22;2776;51.046;6.772;2022-12-24T05:05:41;10.10;99.90
5508;DHT22;2776;51.046;6.772;2022-12-24T05:08:08;10.10;99.90
5508;DHT22;2776;51.046;6.772;2022-12-24T05:10:35;10.10;99.90
5508;DHT22;2776;51.046;6.772;2022-12-24T05:13:02;10.00;99.90
5508;DHT22;2776;51.046;6.772;2022-12-24T05:15:28;10.00;99.90
5508;DHT22;2776;51.046;6.772;2022-12-24T05:17:56;9.90;99.90
5508;DHT22;2776;51.046;6.772;2022-12-24T05:20:23;9.90;99.90
5508;DHT22;2776;51.046;6.772;2022-12-24T05:22:50;9.80;99.90
5508;DHT22;2776;51.046;6.772;2022-12-24T05:25:37;9.90;99.90
5508;DHT22;2776;51.046;6.772;2022-12-24T05:28:22;9.90;99.90
5508;DHT22;2776;51.046;6.772;2022-12-24T05:30:49;10.00;99.90
5508;DHT22;2776;51.046;6.772;2022-12-24T05:33:17;10.00;99.90
5508;DHT22;2776;51.046;6.772;2022-12-24T05:35:44;10.00;99.90
5508;DHT22;2776;51.046;6.772;2022-12-24T05:38:10;10.00;99.90
5508;DHT22;2776;51.046;6.772;2022-12-24T05:40:37;10.10;99.90
5508;DHT22;2776;51.046;6.772;2022-12-24T05:43:04;10.10;99.90
5508;DHT22;2776;51.046;6.772;2022-12-24T05:45:30;10.10;99.90
5508;DHT22;2776;51.046;6.772;2022-12-24T05:47:57;10.10;99.90
5508;DHT22;2776;51.046;6.772;2022-12-24T05:50:26;10.10;99.90
5508;DHT22;2776;51.046;6.772;2022-12-24T05:52:52;10.10;99.90
5508;DHT22;2776;51.046;6.772;2022-12-24T05:55:19;10.10;99.90
5508;DHT22;2776;51.046;6.772;2022-12-24T05:57:46;10.10;99.90
5508;DHT22;2776;51.046;6.772;2022-12-24T06:00:13;10.10;99.90
5508;DHT22;2776;51.046;6.772;2022-12-24T06:02:40;10.20;99.90
5508;DHT22;2776;51.046;6.772;2022-12-24T06:05:07;10.20;99.90
5508;DHT22;2776;51.046;6.772;2022-12-24T06:07:35;10.20;99.90
5508;DHT22;2776;51.046;6.772;2022-12-24T06:10:02;10.30;99.90
5508;DHT22;2776;51.046;6.772;2022-12-24T06:12:29;10.20;99.90
5508;DHT22;2776;51.046;6.772;2022-12-24T06:14:56;10.20;99.90
5508;DHT22;2776;51.046;6.772;2022-12-24T06:17:23;10.20;99.90
5508;DHT22;2776;51.046;6.772;2022-12-24T06:19:49;10.20;99.90
5508;DHT22;2776;51.046;6.772;2022-12-24T06:22:16;10.30;99.90
5508;DHT22;2776;51.046;6.772;2022-12-24T06:24:44;10.20;99.90
5508;DHT22;2776;51.046;6.772;2022-12-24T06:27:11;10.10;99.90
5508;DHT22;2776;51.046;6.772;2022-12-24T06:29:38;10.00;99.90
5508;DHT22;2776;51.046;6.772;2022-12-24T06:32:05;10.00;99.90
5508;DHT22;2776;51.046;6.772;2022-12-24T06:34:31;9.90;99.90
5508;DHT22;2776;51.046;6.772;2022-12-24T06:36:58;9.90;99.90
5508;DHT22;2776;51.046;6.772;2022-12-24T06:39:25;9.90;99.90
5508;DHT22;2776;51.046;6.772;2022-12-24T06:41:53;9.80;99.90
5508;DHT22;2776;51.046;6.772;2022-12-24T06:44:20;9.80;99.90
5508;DHT22;2776;51.046;6.772;2022-12-24T06:46:47;9.90;99.90
5508;DHT22;2776;51.046;6.772;2022-12-24T06:49:13;9.90;99.90
5508;DHT22;2776;51.046;6.772;2022-12-24T06:51:40;10.00;99.90
5508;DHT22;2776;51.046;6.772;2022-12-24T06:54:07;10.00;99.90
5508;DHT22;2776;51.046;6.772;2022-12-24T06:56:33;10.00;99.90
5508;DHT22;2776;51.046;6.772;2022-12-24T06:59:01;10.10;99.90
5508;DHT22;2776;51.046;6.772;2022-12-24T07:01:28;10.00;99.90
5508;DHT22;2776;51.046;6.772;2022-12-24T07:03:55;10.10;99.90
5508;DHT22;2776;51.046;6.772;2022-12-24T07:06:25;10.10;99.90
5508;DHT22;2776;51.046;6.772;2022-12-24T07:08:52;10.10;99.90
5508;DHT22;2776;51.046;6.772;2022-12-24T07:11:19;10.20;99.90
5508;DHT22;2776;51.046;6.772;2022-12-24T07:13:46;10.20;99.90
5508;DHT22;2776;51.046;6.772;2022-12-24T07:16:15;10.20;99.90
5508;DHT22;2776;51.046;6.772;2022-12-24T07:18:41;10.20;99.90
5508;DHT22;2776;51.046;6.772;2022-12-24T07:21:08;10.20;99.90
5508;DHT22;2776;51.046;6.772;2022-12-24T07:23:35;10.20;99.90
5508;DHT22;2776;51.046;6.772;2022-12-24T07:26:04;10.20;99.90
5508;DHT22;2776;51.046;6.772;2022-12-24T07:28:31;10.20;99.90
5508;DHT22;2776;51.046;6.772;2022-12-24T07:30:58;10.20;99.90
5508;DHT22;2776;51.046;6.772;2022-12-24T07:33:27;10.20;99.90
5508;DHT22;2776;51.046;6.772;2022-12-24T07:35:58;10.10;99.90
5508;DHT22;2776;51.046;6.772;2022-12-24T07:38:26;10.00;99.90
5508;DHT22;2776;51.046;6.772;2022-12-24T07:40:53;10.00;99.90
5508;DHT22;2776;51.046;6.772;2022-12-24T07:43:20;10.00;99.90
5508;DHT22;2776;51.046;6.772;2022-12-24T07:45:46;9.90;99.90
5508;DHT22;2776;51.046;6.772;2022-12-24T07:48:13;9.90;99.90
5508;DHT22;2776;51.046;6.772;2022-12-24T07:50:41;9.90;99.90
5508;DHT22;2776;51.046;6.772;2022-12-24T07:53:08;9.80;99.90
5508;DHT22;2776;51.046;6.772;2022-12-24T07:55:35;9.80;99.90
5508;DHT22;2776;51.046;6.772;2022-12-24T07:58:02;9.80;99.90
5508;DHT22;2776;51.046;6.772;2022-12-24T08:00:28;9.70;99.90
5508;DHT22;2776;51.046;6.772;2022-12-24T08:02:55;9.70;99.90
5508;DHT22;2776;51.046;6.772;2022-12-24T08:05:24;9.70;99.90
5508;DHT22;2776;51.046;6.772;2022-12-24T08:07:52;9.80;99.90
5508;DHT22;2776;51.046;6.772;2022-12-24T08:10:19;9.90;99.90
5508;DHT22;2776;51.046;6.772;2022-12-24T08:12:46;9.90;99.90
5508;DHT22;2776;51.046;6.772;2022-12-24T08:15:13;10.00;99.90
5508;DHT22;2776;51.046;6.772;2022-12-24T08:17:39;10.10;99.90
5508;DHT22;2776;51.046;6.772;2022-12-24T08:20:07;10.20;99.90
5508;DHT22;2776;51.046;6.772;2022-12-24T08:22:34;10.20;99.90
5508;DHT22;2776;51.046;6.772;2022-12-24T08:25:02;10.20;99.90
5508;DHT22;2776;51.046;6.772;2022-12-24T08:27:29;10.20;99.90
5508;DHT22;2776;51.046;6.772;2022-12-24T08:29:55;10.30;99.90
5508;DHT22;2776;51.046;6.772;2022-12-24T08:32:22;10.30;99.90
5508;DHT22;2776;51.046;6.772;2022-12-24T08:34:49;10.30;99.90
5508;DHT22;2776;51.046;6.772;2022-12-24T08:37:15;10.40;99.90
5508;DHT22;2776;51.046;6.772;2022-12-24T08:39:42;10.50;99.90
5508;DHT22;2776;51.046;6.772;2022-12-24T08:42:10;10.50;99.90
5508;DHT22;2776;51.046;6.772;2022-12-24T08:44:37;10.60;99.90
5508;DHT22;2776;51.046;6.772;2022-12-24T08:47:03;10.60;99.90
5508;DHT22;2776;51.046;6.772;2022-12-24T08:49:30;10.60;99.90
5508;DHT22;2776;51.046;6.772;2022-12-24T08:51:57;10.60;99.90
5508;DHT22;2776;51.046;6.772;2022-12-24T08:54:24;10.60;99.90
5508;DHT22;2776;51.046;6.772;2022-12-24T08:56:51;10.70;99.90
5508;DHT22;2776;51.046;6.772;2022-12-24T08:59:19;10.60;99.90
5508;DHT22;2776;51.046;6.772;2022-12-24T09:01:46;10.70;99.90
5508;DHT22;2776;51.046;6.772;2022-12-24T09:04:12;10.70;99.90
5508;DHT22;2776;51.046;6.772;2022-12-24T09:06:39;10.70;99.90
5508;DHT22;2776;51.046;6.772;2022-12-24T09:09:06;10.70;99.90
5508;DHT22;2776;51.046;6.772;2022-12-24T09:11:34;10.70;99.90
5508;DHT22;2776;51.046;6.772;2022-12-24T09:14:00;10.60;99.90
5508;DHT22;2776;51.046;6.772;2022-12-24T09:16:28;10.70;99.90
5508;DHT22;2776;51.046;6.772;2022-12-24T09:18:56;10.70;99.90
5508;DHT22;2776;51.046;6.772;2022-12-24T09:21:23;10.70;99.90
5508;DHT22;2776;51.046;6.772;2022-12-24T09:23:50;10.60;99.90
5508;DHT22;2776;51.046;6.772;2022-12-24T09:26:18;10.60;99.90
5508;DHT22;2776;51.046;6.772;2022-12-24T09:28:45;10.60;99.90
5508;DHT22;2776;51.046;6.772;2022-12-24T09:31:13;10.60;99.90
5508;DHT22;2776;51.046;6.772;2022-12-24T09:33:43;10.60;99.90
5508;DHT22;2776;51.046;6.772;2022-12-24T09:36:10;10.60;99.90
5508;DHT22;2776;51.046;6.772;2022-12-24T09:38:37;10.60;99.90
5508;DHT22;2776;51.046;6.772;2022-12-24T09:41:11;10.60;99.90
5508;DHT22;2776;51.046;6.772;2022-12-24T09:43:38;10.60;99.90
5508;DHT22;2776;51.046;6.772;2022-12-24T09:46:08;10.60;99.90
5508;DHT22;2776;51.046;6.772;2022-12-24T09:48:43;10.70;99.90
5508;DHT22;2776;51.046;6.772;2022-12-24T09:51:14;10.70;99.90
5508;DHT22;2776;51.046;6.772;2022-12-24T09:53:46;10.80;99.90
5508;DHT22;2776;51.046;6.772;2022-12-24T09:56:16;10.90;99.90
5508;DHT22;2776;51.046;6.772;2022-12-24T09:58:46;10.90;99.90
5508;DHT22;2776;51.046;6.772;2022-12-24T10:01:15;11.10;99.90
5508;DHT22;2776;51.046;6.772;2022-12-24T10:03:45;11.10;99.90
5508;DHT22;2776;51.046;6.772;2022-12-24T10:06:14;11.20;99.90
5508;DHT22;2776;51.046;6.772;2022-12-24T10:08:50;11.20;99.90
5508;DHT22;2776;51.046;6.772;2022-12-24T10:11:22;11.20;99.90
5508;DHT22;2776;51.046;6.772;2022-12-24T10:14:02;11.30;99.90
5508;DHT22;2776;51.046;6.772;2022-12-24T10:16:36;11.30;99.90
5508;DHT22;2776;51.046;6.772;2022-12-24T10:19:11;11.40;99.90
5508;DHT22;2776;51.046;6.772;2022-12-24T10:21:46;11.40;99.90
5508;DHT22;2776;51.046;6.772;2022-12-24T10:24:19;11.50;99.90
5508;DHT22;2776;51.046;6.772;2022-12-24T10:26:51;11.60;99.90
5508;DHT22;2776;51.046;6.772;2022-12-24T10:29:22;11.60;99.90
5508;DHT22;2776;51.046;6.772;2022-12-24T10:31:53;11.60;99.90
5508;DHT22;2776;51.046;6.772;2022-12-24T10:34:24;11.60;99.90
5508;DHT22;2776;51.046;6.772;2022-12-24T10:36:53;11.70;99.90
5508;DHT22;2776;51.046;6.772;2022-12-24T10:39:22;11.80;99.90
5508;DHT22;2776;51.046;6.772;2022-12-24T10:41:51;11.70;99.90
5508;DHT22;2776;51.046;6.772;2022-12-24T10:44:22;11.70;99.90
5508;DHT22;2776;51.046;6.772;2022-12-24T10:46:49;11.80;99.90
5508;DHT22;2776;51.046;6.772;2022-12-24T10:49:18;11.80;99.90
5508;DHT22;2776;51.046;6.772;2022-12-24T10:51:51;11.90;99.90
5508;DHT22;2776;51.046;6.772;2022-12-24T10:54:20;11.90;99.90
5508;DHT22;2776;51.046;6.772;2022-12-24T10:56:49;11.90;99.90
5508;DHT22;2776;51.046;6.772;2022-12-24T10:59:25;11.80;99.90
5508;DHT22;2776;51.046;6.772;2022-12-24T11:01:53;11.70;99.90
5508;DHT22;2776;51.046;6.772;2022-12-24T11:04:22;11.70;99.90
5508;DHT22;2776;51.046;6.772;2022-12-24T11:06:55;11.80;99.90
5508;DHT22;2776;51.046;6.772;2022-12-24T11:09:25;11.80;99.90
5508;DHT22;2776;51.046;6.772;2022-12-24T11:11:53;11.80;99.90
5508;DHT22;2776;51.046;6.772;2022-12-24T11:14:21;11.90;99.90
5508;DHT22;2776;51.046;6.772;2022-12-24T11:16:50;11.90;99.90
5508;DHT22;2776;51.046;6.772;2022-12-24T11:19:19;11.90;99.90
5508;DHT22;2776;51.046;6.772;2022-12-24T11:21:59;11.90;99.90
5508;DHT22;2776;51.046;6.772;2022-12-24T11:24:27;12.00;99.90
5508;DHT22;2776;51.046;6.772;2022-12-24T11:27:23;12.10;99.90
5508;DHT22;2776;51.046;6.772;2022-12-24T11:33:18;12.30;99.90
5508;DHT22;2776;51.046;6.772;2022-12-24T11:35:49;12.30;99.90
5508;DHT22;2776;51.046;6.772;2022-12-24T11:38:19;12.30;99.90
5508;DHT22;2776;51.046;6.772;2022-12-24T11:40:49;12.40;99.90
5508;DHT22;2776;51.046;6.772;2022-12-24T11:43:18;12.30;99.90
5508;DHT22;2776;51.046;6.772;2022-12-24T11:45:50;12.30;99.90
5508;DHT22;2776;51.046;6.772;2022-12-24T11:48:26;12.30;99.90
5508;DHT22;2776;51.046;6.772;2022-12-24T11:50:58;12.40;99.90
5508;DHT22;2776;51.046;6.772;2022-12-24T11:53:28;12.30;99.90
5508;DHT22;2776;51.046;6.772;2022-12-24T11:55:56;12.40;99.90
5508;DHT22;2776;51.046;6.772;2022-12-24T11:58:30;12.50;99.90
5508;DHT22;2776;51.046;6.772;2022-12-24T12:01:11;12.60;99.90
5508;DHT22;2776;51.046;6.772;2022-12-24T12:03:42;12.60;99.90
5508;DHT22;2776;51.046;6.772;2022-12-24T12:06:20;12.60;99.90
5508;DHT22;2776;51.046;6.772;2022-12-24T12:08:49;12.60;99.90
5508;DHT22;2776;51.046;6.772;2022-12-24T12:11:19;12.60;99.90
5508;DHT22;2776;51.046;6.772;2022-12-24T12:13:48;12.60;99.90
5508;DHT22;2776;51.046;6.772;2022-12-24T12:16:20;12.70;99.90
5508;DHT22;2776;51.046;6.772;2022-12-24T12:18:52;12.60;99.90
5508;DHT22;2776;51.046;6.772;2022-12-24T12:21:23;12.70;99.90
5508;DHT22;2776;51.046;6.772;2022-12-24T12:23:52;12.60;99.90
5508;DHT22;2776;51.046;6.772;2022-12-24T12:26:23;12.60;99.90
5508;DHT22;2776;51.046;6.772;2022-12-24T12:28:54;12.70;99.90
5508;DHT22;2776;51.046;6.772;2022-12-24T12:31:26;12.70;99.90
5508;DHT22;2776;51.046;6.772;2022-12-24T12:33:57;12.60;99.90
5508;DHT22;2776;51.046;6.772;2022-12-24T12:36:27;12.60;99.90
5508;DHT22;2776;51.046;6.772;2022-12-24T12:38:56;12.50;99.90
5508;DHT22;2776;51.046;6.772;2022-12-24T12:41:39;12.40;99.90
5508;DHT22;2776;51.046;6.772;2022-12-24T12:44:35;12.30;99.90
5508;DHT22;2776;51.046;6.772;2022-12-24T12:47:21;12.20;99.90
5508;DHT22;2776;51.046;6.772;2022-12-24T12:49:58;12.20;99.90
5508;DHT22;2776;51.046;6.772;2022-12-24T12:52:40;12.10;99.90
5508;DHT22;2776;51.046;6.772;2022-12-24T12:55:19;12.00;99.90
5508;DHT22;2776;51.046;6.772;2022-12-24T12:57:50;12.00;99.90
5508;DHT22;2776;51.046;6.772;2022-12-24T13:00:20;11.90;99.90
5508;DHT22;2776;51.046;6.772;2022-12-24T13:03:04;11.90;99.90
5508;DHT22;2776;51.046;6.772;2022-12-24T13:05:55;12.00;99.90
5508;DHT22;2776;51.046;6.772;2022-12-24T13:08:41;12.00;99.90
5508;DHT22;2776;51.046;6.772;2022-12-24T13:11:23;12.00;99.90
5508;DHT22;2776;51.046;6.772;2022-12-24T13:14:06;11.90;99.90
5508;DHT22;2776;51.046;6.772;2022-12-24T13:16:49;11.80;99.90
5508;DHT22;2776;51.046;6.772;2022-12-24T13:19:36;11.80;99.90
5508;DHT22;2776;51.046;6.772;2022-12-24T13:22:13;11.70;99.90
5508;DHT22;2776;51.046;6.772;2022-12-24T13:24:46;11.60;99.90
5508;DHT22;2776;51.046;6.772;2022-12-24T13:27:16;11.60;99.90
5508;DHT22;2776;51.046;6.772;2022-12-24T13:29:52;11.50;99.90
5508;DHT22;2776;51.046;6.772;2022-12-24T13:32:49;11.50;99.90
5508;DHT22;2776;51.046;6.772;2022-12-24T13:35:29;11.40;99.90
5508;DHT22;2776;51.046;6.772;2022-12-24T13:38:38;11.40;99.90
5508;DHT22;2776;51.046;6.772;2022-12-24T13:44:28;11.30;99.90
5508;DHT22;2776;51.046;6.772;2022-12-24T13:47:16;11.40;99.90
5508;DHT22;2776;51.046;6.772;2022-12-24T13:49:48;11.40;99.90
5508;DHT22;2776;51.046;6.772;2022-12-24T13:52:22;11.50;99.90
5508;DHT22;2776;51.046;6.772;2022-12-24T13:55:06;11.70;99.90
5508;DHT22;2776;51.046;6.772;2022-12-24T13:57:39;11.80;99.90
5508;DHT22;2776;51.046;6.772;2022-12-24T14:00:24;11.80;99.90
5508;DHT22;2776;51.046;6.772;2022-12-24T14:02:55;11.80;99.90
5508;DHT22;2776;51.046;6.772;2022-12-24T14:05:28;11.80;99.90
5508;DHT22;2776;51.046;6.772;2022-12-24T14:07:57;11.90;99.90
5508;DHT22;2776;51.046;6.772;2022-12-24T14:10:28;11.90;99.90
5508;DHT22;2776;51.046;6.772;2022-12-24T14:12:55;11.80;99.90
5508;DHT22;2776;51.046;6.772;2022-12-24T14:15:57;11.70;99.90
5508;DHT22;2776;51.046;6.772;2022-12-24T14:18:26;11.70;99.90
5508;DHT22;2776;51.046;6.772;2022-12-24T14:20:56;11.60;99.90
5508;DHT22;2776;51.046;6.772;2022-12-24T14:23:32;11.50;99.90
5508;DHT22;2776;51.046;6.772;2022-12-24T14:26:02;11.50;99.90
5508;DHT22;2776;51.046;6.772;2022-12-24T14:28:33;11.40;99.90
5508;DHT22;2776;51.046;6.772;2022-12-24T14:31:04;11.30;99.90
5508;DHT22;2776;51.046;6.772;2022-12-24T14:33:32;11.30;99.90
5508;DHT22;2776;51.046;6.772;2022-12-24T14:36:01;11.20;99.90
5508;DHT22;2776;51.046;6.772;2022-12-24T14:38:28;11.20;99.90
5508;DHT22;2776;51.046;6.772;2022-12-24T14:41:02;11.20;99.90
5508;DHT22;2776;51.046;6.772;2022-12-24T14:43:44;11.10;99.90
5508;DHT22;2776;51.046;6.772;2022-12-24T14:46:17;11.00;99.90
5508;DHT22;2776;51.046;6.772;2022-12-24T14:48:50;11.00;99.90
5508;DHT22;2776;51.046;6.772;2022-12-24T14:51:23;11.00;99.90
5508;DHT22;2776;51.046;6.772;2022-12-24T14:56:46;10.80;99.90
5508;DHT22;2776;51.046;6.772;2022-12-24T14:59:16;10.80;99.90
5508;DHT22;2776;51.046;6.772;2022-12-24T15:01:43;10.80;99.90
5508;DHT22;2776;51.046;6.772;2022-12-24T15:04:15;10.80;99.90
5508;DHT22;2776;51.046;6.772;2022-12-24T15:06:46;10.70;99.90
5508;DHT22;2776;51.046;6.772;2022-12-24T15:09:17;10.70;99.90
5508;DHT22;2776;51.046;6.772;2022-12-24T15:11:46;10.60;99.90
5508;DHT22;2776;51.046;6.772;2022-12-24T15:14:14;10.40;99.90
5508;DHT22;2776;51.046;6.772;2022-12-24T15:16:50;10.20;99.90
5508;DHT22;2776;51.046;6.772;2022-12-24T15:19:21;10.20;99.90
5508;DHT22;2776;51.046;6.772;2022-12-24T15:21:51;10.20;99.90
5508;DHT22;2776;51.046;6.772;2022-12-24T15:24:26;10.10;99.90
5508;DHT22;2776;51.046;6.772;2022-12-24T15:26:54;10.00;99.90
5508;DHT22;2776;51.046;6.772;2022-12-24T15:29:22;10.00;99.90
5508;DHT22;2776;51.046;6.772;2022-12-24T15:31:51;9.90;99.90
5508;DHT22;2776;51.046;6.772;2022-12-24T15:34:25;9.90;99.90
5508;DHT22;2776;51.046;6.772;2022-12-24T15:37:00;10.00;99.90
5508;DHT22;2776;51.046;6.772;2022-12-24T15:39:27;10.00;99.90
5508;DHT22;2776;51.046;6.772;2022-12-24T15:41:54;9.90;99.90
5508;DHT22;2776;51.046;6.772;2022-12-24T15:44:40;9.80;99.90
5508;DHT22;2776;51.046;6.772;2022-12-24T15:47:15;9.80;99.90
5508;DHT22;2776;51.046;6.772;2022-12-24T15:49:45;9.70;99.90
5508;DHT22;2776;51.046;6.772;2022-12-24T15:52:16;9.70;99.90
5508;DHT22;2776;51.046;6.772;2022-12-24T15:54:45;9.60;99.90
5508;DHT22;2776;51.046;6.772;2022-12-24T15:57:14;9.50;99.90
5508;DHT22;2776;51.046;6.772;2022-12-24T15:59:50;9.50;99.90
5508;DHT22;2776;51.046;6.772;2022-12-24T16:05:29;9.50;99.90
5508;DHT22;2776;51.046;6.772;2022-12-24T16:08:05;9.50;99.90
5508;DHT22;2776;51.046;6.772;2022-12-24T16:10:32;9.60;99.90
5508;DHT22;2776;51.046;6.772;2022-12-24T16:13:00;9.50;99.90
5508;DHT22;2776;51.046;6.772;2022-12-24T16:15:27;9.60;99.90
5508;DHT22;2776;51.046;6.772;2022-12-24T16:17:53;9.60;99.90
5508;DHT22;2776;51.046;6.772;2022-12-24T16:20:21;9.50;99.90
5508;DHT22;2776;51.046;6.772;2022-12-24T16:22:48;9.50;99.90
5508;DHT22;2776;51.046;6.772;2022-12-24T16:25:25;9.40;99.90
5508;DHT22;2776;51.046;6.772;2022-12-24T16:27:52;9.40;99.90
5508;DHT22;2776;51.046;6.772;2022-12-24T16:30:20;9.40;99.90
5508;DHT22;2776;51.046;6.772;2022-12-24T16:32:47;9.40;99.90
5508;DHT22;2776;51.046;6.772;2022-12-24T16:35:21;9.40;99.90
5508;DHT22;2776;51.046;6.772;2022-12-24T16:37:50;9.30;99.90
5508;DHT22;2776;51.046;6.772;2022-12-24T16:40:17;9.30;99.90